Time;durP1;ratioP1;P1;durP2;ratioP2;P2;SDS_P1;SDS_P2;PMS_P1;PMS_P2;Temp;Humidity;BMP_temperature;BMP_pressure;BME280_temperature;BME280_humidity;BME280_pressure;Samples;Min_cycle;Max_cycle;Signal;HPM_P1;HPM_P2
2022/04/15 00:01:37;;;;;;;;;;;;;;;13.02;69.85;96394.94;6324247;28;19930;-65
2022/04/15 00:04:40;;;;;;;;;;;;;;;13.16;69.50;96414.94;6337929;27;19930;-65
2022/04/15 00:07:41;;;;;;;;;;;;;;;13.01;70.36;96428.44;6374743;27;19924;-65
2022/04/15 00:10:45;;;;;;;;;;;;;;;12.77;71.15;96433.09;6375190;27;19923;-64
2022/04/15 00:13:48;;;;;;;;;;;;;;;12.81;71.19;96450.34;6374956;27;19924;-65
2022/04/15 00:16:53;;;;;;;;;;;;;;;12.58;71.91;96431.09;6375008;27;19923;-64
2022/04/15 00:19:56;;;;;;;;;;;;;;;12.58;71.59;96428.44;6375030;27;19927;-65
2022/04/15 00:22:58;;;;;;;;;;;;;;;12.68;72.19;96420.63;6373704;27;20416;-65
2022/04/15 00:25:59;;;;;;;;;;;;;;;12.56;72.30;96404.81;6374231;27;20416;-65
2022/04/15 00:29:05;;;;;;;;;;;;;;;12.37;72.90;96383.53;6374876;27;20022;-64
2022/04/15 00:32:07;;;;;;;;;;;;;;;12.49;72.41;96390.44;6374156;27;19931;-65
2022/04/15 00:35:11;;;;;;;;;;;;;;;12.26;72.86;96388.81;6373629;27;19924;-65
2022/04/15 00:38:12;;;;;;;;;;;;;;;12.42;72.79;96401.59;6374291;27;19931;-64
2022/04/15 00:41:15;;;;;;;;;;;;;;;12.38;72.88;96419.47;6373461;27;19927;-64
2022/04/15 00:44:16;;;;;;;;;;;;;;;12.30;73.29;96412.16;6372657;27;20004;-65
2022/04/15 00:47:21;;;;;;;;;;;;;;;12.06;74.27;96411.47;6374022;27;19924;-64
2022/04/15 00:50:26;;;;;;;;;;;;;;;11.98;74.65;96416.50;6373299;27;19923;-64
2022/04/15 00:53:30;;;;;;;;;;;;;;;12.08;74.34;96433.28;6374147;27;19924;-65
2022/04/15 00:56:40;;;;;;;;;;;;;;;12.19;74.22;96429.81;6374044;27;20388;-65
2022/04/15 00:59:46;;;;;;;;;;;;;;;12.21;73.93;96443.72;6374079;27;19923;-65
2022/04/15 01:02:48;;;;;;;;;;;;;;;11.92;74.13;96449.47;6373216;27;19923;-63
2022/04/15 01:05:59;;;;;;;;;;;;;;;11.87;74.63;96462.16;6373974;27;20022;-64
2022/04/15 01:09:01;;;;;;;;;;;;;;;11.96;74.39;96471.97;6372262;27;19927;-65
2022/04/15 01:12:07;;;;;;;;;;;;;;;12.02;73.74;96479.41;6373672;27;19923;-65
2022/04/15 01:15:09;;;;;;;;;;;;;;;11.97;72.59;96463.09;6372311;27;19930;-65
2022/04/15 01:18:10;;;;;;;;;;;;;;;12.00;71.52;96460.25;6372170;27;19923;-65
2022/04/15 01:21:15;;;;;;;;;;;;;;;12.03;70.37;96477.63;6372896;27;20312;-65
2022/04/15 01:24:16;;;;;;;;;;;;;;;11.85;70.77;96478.06;6372617;27;20384;-64
2022/04/15 01:27:26;;;;;;;;;;;;;;;11.97;70.15;96486.00;6372463;27;19923;-64
2022/04/15 01:30:30;;;;;;;;;;;;;;;11.82;69.76;96482.72;6372033;27;19923;-65
2022/04/15 01:33:34;;;;;;;;;;;;;;;11.62;69.79;96486.84;6372433;27;19924;-65
2022/04/15 01:36:34;;;;;;;;;;;;;;;11.50;70.48;96485.16;6354255;27;19930;-65
2022/04/15 01:39:38;;;;;;;;;;;;;;;11.52;70.14;96485.84;6372087;27;19923;-65
2022/04/15 01:42:40;;;;;;;;;;;;;;;11.48;70.34;96487.88;6371886;27;19946;-64
2022/04/15 01:45:41;;;;;;;;;;;;;;;11.46;70.34;96500.31;6372268;27;20312;-65
2022/04/15 01:48:42;;;;;;;;;;;;;;;11.52;70.37;96502.53;6372066;27;19923;-65
2022/04/15 01:51:46;;;;;;;;;;;;;;;11.56;69.44;96493.44;6371531;27;20425;-65
2022/04/15 01:54:50;;;;;;;;;;;;;;;11.73;68.15;96507.97;6372445;27;19923;-64
2022/04/15 01:57:53;;;;;;;;;;;;;;;11.70;66.99;96497.66;6372049;27;19927;-65
2022/04/15 02:00:57;;;;;;;;;;;;;;;11.60;66.36;96513.31;6371232;27;19930;-64
2022/04/15 02:03:58;;;;;;;;;;;;;;;11.47;65.88;96509.94;6371411;27;19945;-65
2022/04/15 02:06:59;;;;;;;;;;;;;;;11.41;65.43;96507.75;6371125;27;20322;-65
2022/04/15 02:10:00;;;;;;;;;;;;;;;11.26;66.01;96493.06;6370884;27;19923;-66
2022/04/15 02:13:01;;;;;;;;;;;;;;;11.46;64.26;96490.66;6371553;27;19923;-65
2022/04/15 02:16:02;;;;;;;;;;;;;;;11.29;64.99;96516.53;6371306;27;19931;-65
2022/04/15 02:19:03;;;;;;;;;;;;;;;11.31;63.86;96506.75;6370668;27;19923;-65
2022/04/15 02:22:04;;;;;;;;;;;;;;;11.29;63.61;96503.38;6371220;27;19923;-64
2022/04/15 02:25:06;;;;;;;;;;;;;;;11.33;63.97;96524.13;6371065;27;19976;-65
2022/04/15 02:28:07;;;;;;;;;;;;;;;11.28;62.86;96547.31;6371495;27;20307;-64
2022/04/15 02:31:11;;;;;;;;;;;;;;;11.18;62.91;96502.38;6353720;27;19924;-65
2022/04/15 02:34:12;;;;;;;;;;;;;;;11.13;63.16;96508.94;6353122;27;19923;-65
2022/04/15 02:37:14;;;;;;;;;;;;;;;11.00;63.58;96509.81;6370992;27;19923;-65
2022/04/15 02:40:18;;;;;;;;;;;;;;;11.01;63.78;96522.03;6371550;27;19924;-65
2022/04/15 02:43:31;;;;;;;;;;;;;;;10.91;63.81;96528.91;6371720;27;19923;-64
2022/04/15 02:46:35;;;;;;;;;;;;;;;10.83;64.30;96522.50;6371763;28;20343;-64
2022/04/15 02:49:37;;;;;;;;;;;;;;;10.86;64.72;96533.66;6370788;28;19923;-64
2022/04/15 02:52:39;;;;;;;;;;;;;;;10.90;64.62;96529.88;6370213;28;20264;-65
2022/04/15 02:55:42;;;;;;;;;;;;;;;10.90;64.34;96523.72;6371012;28;20306;-64
2022/04/15 02:58:45;;;;;;;;;;;;;;;10.79;64.76;96535.88;6371172;28;19924;-64
2022/04/15 03:01:48;;;;;;;;;;;;;;;10.77;64.49;96524.63;6370226;28;19923;-64
2022/04/15 03:04:49;;;;;;;;;;;;;;;10.64;64.82;96523.81;6370139;28;19945;-64
2022/04/15 03:07:50;;;;;;;;;;;;;;;10.63;64.61;96522.13;6371418;27;19931;-65
2022/04/15 03:10:51;;;;;;;;;;;;;;;10.46;65.00;96504.06;6375483;27;19937;-65
2022/04/15 03:13:54;;;;;;;;;;;;;;;10.72;63.85;96521.47;6376401;27;19924;-65
2022/04/15 03:16:58;;;;;;;;;;;;;;;10.78;63.80;96525.47;6376263;27;19935;-65
2022/04/15 03:20:04;;;;;;;;;;;;;;;10.72;63.63;96537.25;6374157;27;19923;-64
2022/04/15 03:23:05;;;;;;;;;;;;;;;10.71;63.36;96535.59;6375295;27;19930;-64
2022/04/15 03:26:07;;;;;;;;;;;;;;;10.80;62.98;96542.00;6375469;27;19971;-65
2022/04/15 03:29:08;;;;;;;;;;;;;;;10.69;63.29;96534.00;6374911;27;20022;-65
2022/04/15 03:32:12;;;;;;;;;;;;;;;10.68;63.46;96530.53;6375102;27;19923;-64
2022/04/15 03:35:14;;;;;;;;;;;;;;;10.69;63.32;96526.94;6375767;27;19923;-64
2022/04/15 03:38:18;;;;;;;;;;;;;;;10.62;63.27;96515.19;6375756;27;19931;-64
2022/04/15 03:41:20;;;;;;;;;;;;;;;10.56;63.14;96505.13;6374542;27;19923;-65
2022/04/15 03:44:21;;;;;;;;;;;;;;;10.45;62.92;96528.69;6374899;27;19946;-65
2022/04/15 03:47:25;;;;;;;;;;;;;;;10.33;62.72;96547.00;6374621;27;19930;-65
2022/04/15 03:50:28;;;;;;;;;;;;;;;10.39;61.66;96540.50;6375463;27;19935;-64
2022/04/15 03:53:30;;;;;;;;;;;;;;;10.29;61.23;96540.25;6374407;27;19931;-64
2022/04/15 03:56:32;;;;;;;;;;;;;;;10.26;61.00;96556.22;6374626;27;20402;-65
2022/04/15 03:59:33;;;;;;;;;;;;;;;10.26;60.25;96553.59;6374300;27;19945;-64
2022/04/15 04:02:36;;;;;;;;;;;;;;;10.03;61.37;96551.69;6374605;27;19931;-65
2022/04/15 04:05:37;;;;;;;;;;;;;;;9.98;61.67;96524.88;6373876;27;19934;-65
2022/04/15 04:08:38;;;;;;;;;;;;;;;9.82;62.29;96530.31;6374485;27;19923;-64
2022/04/15 04:11:39;;;;;;;;;;;;;;;9.86;61.73;96527.41;6374548;27;19919;-65
2022/04/15 04:14:40;;;;;;;;;;;;;;;9.84;61.33;96526.66;6374177;27;20022;-65
2022/04/15 04:17:42;;;;;;;;;;;;;;;10.01;60.68;96507.09;6373943;27;19923;-65
2022/04/15 04:20:46;;;;;;;;;;;;;;;10.09;60.09;96506.59;6373342;27;19924;-64
2022/04/15 04:23:48;;;;;;;;;;;;;;;10.05;60.26;96502.50;6373460;27;19923;-64
2022/04/15 04:26:50;;;;;;;;;;;;;;;10.16;59.17;96499.94;6373366;27;19923;-65
2022/04/15 04:29:53;;;;;;;;;;;;;;;10.21;58.33;96504.91;6374775;27;19923;-64
2022/04/15 04:32:54;;;;;;;;;;;;;;;10.23;58.58;96495.97;6374591;27;19930;-65
2022/04/15 04:35:59;;;;;;;;;;;;;;;10.50;56.99;96495.88;6374257;27;19923;-64
2022/04/15 04:39:06;;;;;;;;;;;;;;;10.62;56.88;96486.25;6374471;27;19927;-65
2022/04/15 04:42:09;;;;;;;;;;;;;;;10.82;56.35;96497.16;6373695;27;20312;-65
2022/04/15 04:45:10;;;;;;;;;;;;;;;11.00;55.80;96503.72;6374238;27;20300;-65
2022/04/15 04:48:14;;;;;;;;;;;;;;;11.12;53.42;96492.28;6373988;27;20021;-65
2022/04/15 04:51:17;;;;;;;;;;;;;;;11.03;52.87;96508.75;6374114;27;19923;-64
2022/04/15 04:54:21;;;;;;;;;;;;;;;10.99;52.63;96499.41;6373105;27;20335;-64
2022/04/15 04:57:22;;;;;;;;;;;;;;;11.10;51.71;96488.94;6373469;27;19923;-65
2022/04/15 05:00:26;;;;;;;;;;;;;;;11.06;51.55;96489.25;6373821;27;19923;-64
2022/04/15 05:03:30;;;;;;;;;;;;;;;11.07;50.62;96493.56;6373755;27;19927;-65
2022/04/15 05:06:36;;;;;;;;;;;;;;;11.02;50.21;96493.91;6346990;28;20744;-65
2022/04/15 05:09:41;;;;;;;;;;;;;;;11.02;51.15;96486.84;6347821;28;19924;-65
2022/04/15 05:12:45;;;;;;;;;;;;;;;11.28;50.75;96485.91;6346124;28;19951;-65
2022/04/15 05:15:51;;;;;;;;;;;;;;;11.59;49.76;96492.34;6347980;28;19927;-65
2022/04/15 05:18:52;;;;;;;;;;;;;;;12.01;47.99;96480.38;6347657;28;19930;-65
2022/04/15 05:21:57;;;;;;;;;;;;;;;12.36;48.57;96468.88;6348114;28;19924;-65
2022/04/15 05:25:01;;;;;;;;;;;;;;;12.59;47.85;96470.53;6347302;28;20403;-64
2022/04/15 05:28:03;;;;;;;;;;;;;;;12.78;47.75;96469.09;6346000;28;19923;-64
2022/04/15 05:31:06;;;;;;;;;;;;;;;13.18;46.22;96456.13;6347268;28;20388;-65
2022/04/15 05:34:12;;;;;;;;;;;;;;;13.33;45.63;96464.63;6347450;28;19924;-65
2022/04/15 05:37:13;;;;;;;;;;;;;;;13.54;45.03;96454.09;6346887;28;19923;-65
2022/04/15 05:40:17;;;;;;;;;;;;;;;13.82;44.03;96439.38;6347316;28;19923;-65
2022/04/15 05:43:18;;;;;;;;;;;;;;;14.07;42.73;96450.53;6346796;28;19935;-65
2022/04/15 05:46:19;;;;;;;;;;;;;;;14.21;41.74;96436.94;6347220;28;19924;-64
2022/04/15 05:49:24;;;;;;;;;;;;;;;14.30;41.34;96438.78;6345816;28;19923;-64
2022/04/15 05:52:25;;;;;;;;;;;;;;;14.57;40.28;96434.72;6346633;28;19923;-65
2022/04/15 05:55:28;;;;;;;;;;;;;;;14.80;38.15;96440.63;6347090;28;19923;-64
2022/04/15 05:58:29;;;;;;;;;;;;;;;14.79;38.41;96447.75;6346142;28;19946;-65
2022/04/15 06:01:33;;;;;;;;;;;;;;;15.23;38.09;96453.53;6346767;28;19930;-65
2022/04/15 06:04:37;;;;;;;;;;;;;;;15.95;35.92;96454.06;6353275;27;19924;-65
2022/04/15 06:07:40;;;;;;;;;;;;;;;16.23;35.61;96451.50;6371516;27;19923;-65
2022/04/15 06:10:41;;;;;;;;;;;;;;;17.02;33.97;96443.03;6372082;27;19923;-65
2022/04/15 06:13:47;;;;;;;;;;;;;;;17.77;33.10;96456.84;6370908;27;20389;-65
2022/04/15 06:16:49;;;;;;;;;;;;;;;19.32;30.59;96461.31;6371124;27;19934;-66
2022/04/15 06:19:50;;;;;;;;;;;;;;;22.28;28.03;96463.63;6371185;27;20084;-65
2022/04/15 06:22:51;;;;;;;;;;;;;;;23.52;26.54;96471.84;6371459;27;19924;-65
2022/04/15 06:25:55;;;;;;;;;;;;;;;23.45;24.87;96474.47;6371989;27;19923;-65
2022/04/15 06:28:59;;;;;;;;;;;;;;;23.09;26.00;96471.75;6371507;27;19927;-65
2022/04/15 06:31:59;;;;;;;;;;;;;;;22.59;25.62;96470.66;6370036;27;19935;-65
2022/04/15 06:35:03;;;;;;;;;;;;;;;22.84;23.47;96473.88;6370943;27;19923;-64
2022/04/15 06:38:07;;;;;;;;;;;;;;;25.23;21.50;96486.03;6371697;27;19962;-65
2022/04/15 06:41:10;;;;;;;;;;;;;;;26.03;21.76;96486.25;6370693;27;19946;-65
2022/04/15 06:44:14;;;;;;;;;;;;;;;26.63;17.62;96476.28;6370904;27;19923;-65
2022/04/15 06:47:17;;;;;;;;;;;;;;;28.36;18.55;96481.69;6371095;28;19923;-65
2022/04/15 06:50:22;;;;;;;;;;;;;;;29.64;17.69;96482.88;6371547;28;20320;-65
2022/04/15 06:53:26;;;;;;;;;;;;;;;31.30;16.78;96485.53;6371500;28;20440;-65
2022/04/15 06:56:27;;;;;;;;;;;;;;;33.45;14.17;96483.69;6370679;28;19924;-65
2022/04/15 06:59:28;;;;;;;;;;;;;;;34.52;13.21;96464.84;6370621;28;19930;-65
2022/04/15 07:02:33;;;;;;;;;;;;;;;35.98;14.27;96466.94;6370230;28;19967;-65
2022/04/15 07:05:36;;;;;;;;;;;;;;;37.60;11.24;96466.25;6370326;28;19923;-66
2022/04/15 07:08:40;;;;;;;;;;;;;;;39.10;11.56;96462.06;6371406;28;19923;-66
2022/04/15 07:11:42;;;;;;;;;;;;;;;39.12;9.69;96468.09;6370461;28;20044;-66
2022/04/15 07:14:45;;;;;;;;;;;;;;;37.58;10.96;96463.75;6370401;28;19924;-66
2022/04/15 07:17:46;;;;;;;;;;;;;;;37.48;11.00;96464.66;6352489;28;20412;-65
2022/04/15 07:20:49;;;;;;;;;;;;;;;37.39;9.62;96471.78;6371182;28;19923;-65
2022/04/15 07:23:50;;;;;;;;;;;;;;;37.17;10.51;96452.09;6370186;28;19924;-65
2022/04/15 07:26:55;;;;;;;;;;;;;;;38.00;10.04;96456.16;6371236;28;19923;-65
2022/04/15 07:29:56;;;;;;;;;;;;;;;38.73;9.55;96461.59;6369944;28;20068;-66
2022/04/15 07:32:58;;;;;;;;;;;;;;;38.91;9.27;96449.06;6370379;28;19931;-65
2022/04/15 07:36:03;;;;;;;;;;;;;;;39.17;9.89;96460.59;6369756;28;19923;-66
2022/04/15 07:39:08;;;;;;;;;;;;;;;39.33;8.60;96469.53;6370037;28;19923;-64
2022/04/15 07:42:11;;;;;;;;;;;;;;;37.37;10.13;96484.97;6369447;28;20005;-66
2022/04/15 07:45:15;;;;;;;;;;;;;;;36.90;9.42;96466.97;6370728;28;20307;-66
2022/04/15 07:48:19;;;;;;;;;;;;;;;37.09;10.49;96475.47;6370766;28;20391;-64
2022/04/15 07:51:22;;;;;;;;;;;;;;;38.76;9.30;96476.72;6370962;28;19923;-65
2022/04/15 07:54:23;;;;;;;;;;;;;;;39.57;8.86;96483.25;6371844;27;19931;-66
2022/04/15 07:57:29;;;;;;;;;;;;;;;39.06;9.20;96470.88;6374419;27;19923;-65
2022/04/15 08:00:34;;;;;;;;;;;;;;;39.39;9.54;96471.09;6375397;27;20009;-66
2022/04/15 08:03:38;;;;;;;;;;;;;;;40.02;8.77;96472.75;6375147;27;20288;-65
2022/04/15 08:06:39;;;;;;;;;;;;;;;40.33;8.88;96470.38;6375063;27;19935;-66
2022/04/15 08:09:40;;;;;;;;;;;;;;;40.59;8.81;96481.78;6374830;27;19923;-66
2022/04/15 08:12:46;;;;;;;;;;;;;;;41.50;7.87;96475.75;6374784;27;19923;-65
2022/04/15 08:15:53;;;;;;;;;;;;;;;40.68;7.64;96459.06;6374558;27;19923;-66
2022/04/15 08:18:59;;;;;;;;;;;;;;;39.51;7.85;96456.91;6374565;27;20416;-65
2022/04/15 08:22:00;;;;;;;;;;;;;;;39.67;7.94;96452.84;6373849;27;19923;-64
2022/04/15 08:25:02;;;;;;;;;;;;;;;40.07;8.47;96450.63;6374128;27;19930;-65
2022/04/15 08:28:07;;;;;;;;;;;;;;;40.83;7.01;96451.31;6373153;27;19923;-66
2022/04/15 08:31:10;;;;;;;;;;;;;;;41.75;8.05;96465.25;6373781;27;19923;-66
2022/04/15 08:34:14;;;;;;;;;;;;;;;41.11;7.04;96450.53;6373703;27;20041;-65
2022/04/15 08:37:19;;;;;;;;;;;;;;;40.11;7.31;96440.63;6374494;27;19931;-65
2022/04/15 08:40:24;;;;;;;;;;;;;;;38.83;8.28;96428.47;6374444;27;19927;-65
2022/04/15 08:43:29;;;;;;;;;;;;;;;38.97;8.26;96431.38;6373960;27;19927;-67
2022/04/15 08:46:30;;;;;;;;;;;;;;;39.85;7.77;96442.16;6373114;27;19924;-66
2022/04/15 08:49:32;;;;;;;;;;;;;;;38.72;7.40;96415.94;6354696;27;20312;-66
2022/04/15 08:52:33;;;;;;;;;;;;;;;37.43;8.22;96428.97;6355258;27;19930;-65
2022/04/15 08:55:34;;;;;;;;;;;;;;;37.80;8.46;96421.38;6373186;27;19946;-66
2022/04/15 08:58:35;;;;;;;;;;;;;;;37.19;8.43;96438.94;6373268;27;19965;-65
2022/04/15 09:01:42;;;;;;;;;;;;;;;35.80;9.17;96418.19;6373988;27;19923;-65
2022/04/15 09:04:48;;;;;;;;;;;;;;;36.05;9.51;96420.16;6373484;27;19923;-66
2022/04/15 09:07:49;;;;;;;;;;;;;;;36.87;9.14;96420.91;6372446;27;20010;-65
2022/04/15 09:10:54;;;;;;;;;;;;;;;37.79;7.63;96414.22;6372648;27;19924;-66
2022/04/15 09:14:02;;;;;;;;;;;;;;;37.00;7.89;96420.34;6373640;27;20006;-66
2022/04/15 09:17:05;;;;;;;;;;;;;;;35.73;8.67;96421.19;6372356;27;19996;-65
2022/04/15 09:20:12;;;;;;;;;;;;;;;34.87;9.47;96412.34;6373263;27;19946;-65
2022/04/15 09:23:14;;;;;;;;;;;;;;;34.28;9.83;96404.28;6372588;27;19924;-65
2022/04/15 09:26:15;;;;;;;;;;;;;;;34.29;9.68;96427.81;6373425;27;20277;-65
2022/04/15 09:29:21;;;;;;;;;;;;;;;33.55;10.17;96403.91;6372647;27;20303;-66
2022/04/15 09:32:24;;;;;;;;;;;;;;;34.20;10.30;96385.69;6372879;27;19923;-66
2022/04/15 09:35:25;;;;;;;;;;;;;;;35.02;9.90;96402.59;6371904;27;20010;-65
2022/04/15 09:38:44;;;;;;;;;;;;;;;35.08;9.67;96398.81;6372883;27;19923;-65
2022/04/15 09:41:52;;;;;;;;;;;;;;;33.72;10.17;96396.44;6371852;27;20296;-66
2022/04/15 09:44:59;;;;;;;;;;;;;;;33.26;10.33;96382.31;6372045;27;19929;-65
2022/04/15 09:48:05;;;;;;;;;;;;;;;32.99;10.69;96381.41;6353736;27;20454;-66
2022/04/15 09:51:18;;;;;;;;;;;;;;;32.48;10.55;96375.28;6372428;27;19923;-65
2022/04/15 09:54:23;;;;;;;;;;;;;;;31.50;11.65;96376.38;6371610;27;19924;-66
2022/04/15 09:57:33;;;;;;;;;;;;;;;30.99;11.84;96377.25;6371423;27;20381;-65
2022/04/15 10:00:38;;;;;;;;;;;;;;;32.27;11.20;96377.66;6372062;27;19923;-65
2022/04/15 10:03:42;;;;;;;;;;;;;;;32.12;11.50;96383.72;6371049;27;19923;-66
2022/04/15 10:06:46;;;;;;;;;;;;;;;31.46;11.32;96360.81;6371443;27;19924;-66
2022/04/15 10:09:47;;;;;;;;;;;;;;;30.99;11.70;96371.84;6370780;27;20307;-68
2022/04/15 10:12:51;;;;;;;;;;;;;;;30.96;11.71;96348.69;6371842;27;19931;-68
2022/04/15 10:15:53;;;;;;;;;;;;;;;30.86;11.51;96353.94;6371448;27;20392;-65
2022/04/15 10:18:59;;;;;;;;;;;;;;;30.29;12.45;96364.59;6371483;27;20021;-66
2022/04/15 10:22:03;;;;;;;;;;;;;;;29.37;12.86;96352.28;6371835;27;19923;-66
2022/04/15 10:25:07;;;;;;;;;;;;;;;30.01;12.43;96346.28;6371136;27;19923;-66
2022/04/15 10:28:18;;;;;;;;;;;;;;;30.36;12.37;96355.28;6352546;27;19923;-65
2022/04/15 10:31:19;;;;;;;;;;;;;;;29.85;12.69;96335.06;6371965;27;19930;-66
2022/04/15 10:34:22;;;;;;;;;;;;;;;30.56;12.23;96343.22;6370641;27;19923;-66
2022/04/15 10:37:44;;;;;;;;;;;;;;;30.40;11.96;96323.91;6371771;27;20280;-66
2022/04/15 10:40:49;;;;;;;;;;;;;;;29.81;12.19;96324.91;6370958;27;20019;-65
2022/04/15 10:43:57;;;;;;;;;;;;;;;29.17;12.78;96327.34;6371535;27;19923;-66
2022/04/15 10:46:59;;;;;;;;;;;;;;;28.52;13.21;96326.06;6370696;28;19954;-65
2022/04/15 10:50:03;;;;;;;;;;;;;;;28.43;13.33;96319.31;6370099;28;20018;-65
2022/04/15 10:53:25;;;;;;;;;;;;;;;28.95;12.94;96314.28;6371328;28;19923;-65
2022/04/15 10:56:26;;;;;;;;;;;;;;;28.75;13.07;96308.31;6371156;28;19924;-65
2022/04/15 11:02:55;;;;;;;;;;;;;;;28.39;13.17;96308.09;6370561;28;20015;-65
2022/04/15 11:05:58;;;;;;;;;;;;;;;28.38;13.19;96308.31;6369241;28;19931;-65
2022/04/15 11:09:13;;;;;;;;;;;;;;;28.21;13.27;96303.47;6369763;28;19929;-66
2022/04/15 11:12:48;;;;;;;;;;;;;;;27.43;13.58;96305.81;6371168;28;19924;-64
2022/04/15 11:15:58;;;;;;;;;;;;;;;26.90;13.71;96298.06;6314706;28;20395;-64
2022/04/15 11:18:59;;;;;;;;;;;;;;;26.80;13.73;96298.53;6370691;28;19924;-65
2022/04/15 11:22:00;;;;;;;;;;;;;;;26.16;14.83;96292.13;6370103;28;19923;-65
2022/04/15 11:25:06;;;;;;;;;;;;;;;25.52;15.06;96302.53;6370458;28;20307;-65
2022/04/15 11:28:07;;;;;;;;;;;;;;;24.70;15.85;96284.78;6370380;27;19923;-65
2022/04/15 11:31:20;;;;;;;;;;;;;;;24.44;16.29;96298.13;6375830;27;20392;-66
2022/04/15 11:34:21;;;;;;;;;;;;;;;24.37;16.43;96281.91;6375990;27;19923;-66
2022/04/15 11:37:23;;;;;;;;;;;;;;;24.97;15.87;96299.13;6374845;27;20380;-65
2022/04/15 11:40:24;;;;;;;;;;;;;;;25.03;15.37;96309.06;6375704;27;19931;-65
2022/04/15 11:43:25;;;;;;;;;;;;;;;24.26;16.04;96306.69;6374616;27;19979;-65
2022/04/15 11:46:37;;;;;;;;;;;;;;;23.64;16.40;96289.56;6375141;27;20410;-65
2022/04/15 11:49:40;;;;;;;;;;;;;;;23.47;16.71;96291.69;6375456;27;19928;-65
2022/04/15 11:52:44;;;;;;;;;;;;;;;23.25;17.27;96286.34;6375335;27;19995;-65
2022/04/15 11:55:51;;;;;;;;;;;;;;;22.37;18.28;96300.88;6375229;27;19972;-66
2022/04/15 11:58:53;;;;;;;;;;;;;;;22.44;18.53;96300.94;6374300;27;20428;-65
2022/04/15 12:02:01;;;;;;;;;;;;;;;21.64;19.48;96294.47;6374867;27;19923;-64
2022/04/15 12:05:02;;;;;;;;;;;;;;;21.80;19.44;96298.78;6373679;27;20388;-65
2022/04/15 12:08:10;;;;;;;;;;;;;;;21.84;19.25;96310.81;6374621;27;20392;-65
2022/04/15 12:11:11;;;;;;;;;;;;;;;21.69;19.56;96303.59;6374747;27;19930;-65
2022/04/15 12:14:17;;;;;;;;;;;;;;;21.44;19.83;96294.97;6374000;27;19923;-66
2022/04/15 12:17:19;;;;;;;;;;;;;;;20.89;20.40;96304.09;6374498;27;19923;-68
2022/04/15 12:20:20;;;;;;;;;;;;;;;20.88;20.62;96309.59;6374612;27;20017;-66
2022/04/15 12:23:22;;;;;;;;;;;;;;;20.84;20.81;96298.44;6374668;27;19924;-67
2022/04/15 12:26:39;;;;;;;;;;;;;;;21.10;20.32;96292.72;6374813;27;19927;-67
2022/04/15 12:29:51;;;;;;;;;;;;;;;21.36;20.13;96303.03;6374696;27;19923;-64
2022/04/15 12:33:08;;;;;;;;;;;;;;;21.10;20.52;96297.25;6374583;27;19924;-64
2022/04/15 12:36:09;;;;;;;;;;;;;;;21.19;20.84;96306.88;6373175;27;19929;-65
2022/04/15 12:39:14;;;;;;;;;;;;;;;21.32;20.46;96299.06;6355893;27;19923;-65
2022/04/15 12:42:28;;;;;;;;;;;;;;;21.01;20.78;96305.34;6372749;27;19923;-65
2022/04/15 12:45:31;;;;;;;;;;;;;;;20.65;21.38;96309.59;6373445;27;19923;-65
2022/04/15 12:48:48;;;;;;;;;;;;;;;21.15;20.90;96332.31;6373674;27;20401;-66
2022/04/15 12:51:49;;;;;;;;;;;;;;;20.66;21.16;96332.63;6372960;27;19930;-66
2022/04/15 12:55:11;;;;;;;;;;;;;;;19.74;21.97;96307.25;6373790;27;20022;-65
2022/04/15 12:58:15;;;;;;;;;;;;;;;18.46;23.54;96315.81;6372546;27;20316;-65
2022/04/15 13:01:16;;;;;;;;;;;;;;;18.82;23.77;96319.94;6373508;27;19925;-66
2022/04/15 13:04:20;;;;;;;;;;;;;;;18.39;23.78;96324.44;6372984;27;19923;-66
2022/04/15 13:07:24;;;;;;;;;;;;;;;18.72;23.47;96316.53;6373393;27;19929;-64
2022/04/15 13:10:25;;;;;;;;;;;;;;;18.60;23.51;96326.66;6373509;27;19923;-65
2022/04/15 13:13:28;;;;;;;;;;;;;;;18.24;23.82;96320.72;6373520;27;19923;-67
2022/04/15 13:16:32;;;;;;;;;;;;;;;17.97;24.31;96320.94;6373633;27;19924;-65
2022/04/15 13:19:36;;;;;;;;;;;;;;;17.64;24.43;96320.72;6372629;27;20296;-66
2022/04/15 13:22:39;;;;;;;;;;;;;;;17.39;25.07;96312.56;6372494;27;19980;-65
2022/04/15 13:25:40;;;;;;;;;;;;;;;17.08;25.71;96303.38;6354463;27;19931;-65
2022/04/15 13:28:44;;;;;;;;;;;;;;;16.89;26.35;96302.53;6372985;27;19931;-65
2022/04/15 13:31:45;;;;;;;;;;;;;;;16.52;26.68;96306.13;6372297;27;20364;-66
2022/04/15 13:34:51;;;;;;;;;;;;;;;16.51;26.94;96301.81;6373038;27;19924;-65
2022/04/15 13:37:54;;;;;;;;;;;;;;;16.28;27.23;96292.63;6373061;27;20013;-65
2022/04/15 13:40:58;;;;;;;;;;;;;;;16.16;27.02;96303.44;6372231;27;19924;-65
2022/04/15 13:44:00;;;;;;;;;;;;;;;15.94;27.15;96303.81;6371680;27;19923;-65
2022/04/15 13:47:03;;;;;;;;;;;;;;;15.76;27.23;96300.25;6371681;27;19923;-64
2022/04/15 13:50:07;;;;;;;;;;;;;;;15.75;27.49;96294.13;6354782;27;19963;-65
2022/04/15 13:56:39;;;;;;;;;;;;;;;15.62;27.71;96282.97;6372811;27;19984;-64
2022/04/15 13:59:43;;;;;;;;;;;;;;;15.65;27.66;96290.63;6372159;27;19923;-65
2022/04/15 14:02:46;;;;;;;;;;;;;;;15.58;27.94;96282.44;6372277;27;19924;-65
2022/04/15 14:05:51;;;;;;;;;;;;;;;15.25;28.35;96289.06;6372099;27;20061;-66
2022/04/15 14:08:55;;;;;;;;;;;;;;;15.05;28.75;96277.66;6372138;27;19923;-65
2022/04/15 14:11:56;;;;;;;;;;;;;;;14.97;28.95;96277.53;6372359;27;19930;-64
2022/04/15 14:14:57;;;;;;;;;;;;;;;14.74;29.42;96282.28;6371566;27;19924;-66
2022/04/15 14:18:04;;;;;;;;;;;;;;;14.52;29.84;96273.66;6371728;27;20408;-66
2022/04/15 14:21:05;;;;;;;;;;;;;;;14.27;30.24;96285.56;6371836;27;19923;-66
2022/04/15 14:24:12;;;;;;;;;;;;;;;14.29;30.53;96283.59;6371112;27;20010;-66
2022/04/15 14:27:14;;;;;;;;;;;;;;;13.83;30.91;96274.44;6371663;27;19924;-65
2022/04/15 14:30:15;;;;;;;;;;;;;;;13.86;31.31;96292.69;6371819;27;19923;-66
2022/04/15 14:33:20;;;;;;;;;;;;;;;13.88;31.29;96290.75;6371706;27;20297;-66
2022/04/15 14:36:22;;;;;;;;;;;;;;;13.64;31.61;96293.75;6371602;27;20308;-67
2022/04/15 14:39:23;;;;;;;;;;;;;;;13.53;31.73;96285.03;6370978;27;19946;-66
2022/04/15 14:42:30;;;;;;;;;;;;;;;13.39;31.89;96289.72;6370634;27;19919;-65
2022/04/15 14:45:31;;;;;;;;;;;;;;;13.25;32.34;96276.81;6370823;27;19923;-65
2022/04/15 14:48:32;;;;;;;;;;;;;;;13.13;32.43;96296.34;6370845;28;19920;-65
2022/04/15 14:51:36;;;;;;;;;;;;;;;13.12;32.68;96286.75;6371689;28;20268;-65
2022/04/15 14:54:39;;;;;;;;;;;;;;;12.77;33.19;96290.53;6370753;28;20407;-66
2022/04/15 14:57:43;;;;;;;;;;;;;;;12.66;33.97;96298.50;6353616;28;20387;-65
2022/04/15 15:00:44;;;;;;;;;;;;;;;12.69;34.08;96301.72;6370944;28;19923;-65
2022/04/15 15:03:46;;;;;;;;;;;;;;;12.78;34.27;96306.25;6353469;27;20436;-66
2022/04/15 15:06:48;;;;;;;;;;;;;;;12.56;34.42;96293.97;6357508;27;19927;-65
2022/04/15 15:09:49;;;;;;;;;;;;;;;12.59;34.31;96291.06;6375654;27;19930;-65
2022/04/15 15:12:52;;;;;;;;;;;;;;;12.70;34.29;96290.19;6376489;27;19924;-65
2022/04/15 15:15:53;;;;;;;;;;;;;;;12.49;34.26;96300.72;6376475;27;20291;-65
2022/04/15 15:18:55;;;;;;;;;;;;;;;12.49;34.28;96297.25;6376199;27;19923;-65
2022/04/15 15:21:58;;;;;;;;;;;;;;;12.33;34.65;96305.56;6376188;27;19927;-64
2022/04/15 15:31:39;;;;;;;;;;;;;;;12.40;34.83;96317.31;6375216;27;19930;-65
2022/04/15 15:34:42;;;;;;;;;;;;;;;12.36;35.00;96310.59;6375563;27;20303;-66
2022/04/15 15:37:45;;;;;;;;;;;;;;;12.41;34.83;96308.41;6375542;27;19923;-65
2022/04/15 15:40:48;;;;;;;;;;;;;;;12.58;35.04;96314.97;6374729;27;19923;-66
2022/04/15 15:43:49;;;;;;;;;;;;;;;12.52;34.97;96315.47;6374713;27;19930;-65
2022/04/15 15:46:52;;;;;;;;;;;;;;;12.70;34.86;96313.13;6375683;27;19919;-65
2022/04/15 15:49:56;;;;;;;;;;;;;;;12.64;34.89;96303.91;6374823;27;19942;-64
2022/04/15 15:52:57;;;;;;;;;;;;;;;12.59;35.19;96317.47;6374429;27;19923;-65
2022/04/15 15:55:58;;;;;;;;;;;;;;;12.70;35.21;96318.41;6374067;27;19952;-65
2022/04/15 15:58:59;;;;;;;;;;;;;;;12.40;35.81;96319.09;6373772;27;20394;-65
2022/04/15 16:02:01;;;;;;;;;;;;;;;12.21;36.23;96312.66;6374239;27;19923;-65
2022/04/15 16:05:03;;;;;;;;;;;;;;;11.95;36.97;96296.31;6374630;27;19931;-65
2022/04/15 16:08:04;;;;;;;;;;;;;;;11.72;37.79;96291.97;6374106;27;19923;-65
2022/04/15 16:11:05;;;;;;;;;;;;;;;11.73;38.11;96293.66;6374830;27;19971;-65